OEWJHEAX [2]

Guest
Details From OEWJ - Wejh
To HEAX - Alexandria Intl
Flight Number 2
Tags Real Commercial Decoded
Created
Modified
Stats Distance 460 nm / 851 km
Max Altitude 26,000 ft / 7,925 m
Waypoints 7
Social Downloads 2
Likes 0
Share VATSIM

Download

Looking for another format? Having issues loading an existing format? Contact us
Advertisement - Login to hide

Notes

Decoded

Route

WEJ PASAM SHM MENLI CVO MENKU HEAX

ID Type Via Altitude Latitude Longitude Leg Dist Tot Dist Heading (true) Name
O WEJ VOR - 0 ft / 0 m 26.17933˚ 36.48811˚ - 0 nm - WEJH VORTAC
PASAM FIX - 24,794 ft / 7,557 m 27.51250˚ 34.92833˚ 115 nm 115 nm 314° / 313° -
SHM VOR - 26,000 ft / 7,925 m 27.99806˚ 34.41333˚ 39 nm 155 nm 317° / 317° SHARM EL SHEIKH VOR-DME
MENLI FIX - 26,000 ft / 7,925 m 29.78361˚ 31.86833˚ 171 nm 327 nm 309° / 308° -
CVO VOR - 26,000 ft / 7,925 m 30.09231˚ 31.38842˚ 31 nm 358 nm 307° / 306° CAIRO VOR-DME
MENKU FIX - 5,739 ft / 1,749 m 31.09194˚ 30.30167˚ 82 nm 440 nm 317° / 317° -
O HEAX APT - 0 ft / 0 m 31.19388˚ 29.94890˚ 19 nm 459 nm 289° / 289° -

Altitude Profile

Advertisement - Login to hide

Weather


0- 5 10 15 20 25 30 35+ Temperature / ° C

Clouds and Precipitation
Forecast for 2017-12-13 00:00 UTC. Updated an hour ago

Ground ~20,000 ft ~40,000 ft Winds

OEWJ

Details ICAO OEWJ (EJH)
Name WEJH
Region Saudi Arabia
Timezone Asia/Riyadh (UTC+3.0)
Stats Elevation 66 ft / 20 m (AMSL)
Location 26.198554° 36.476104°
Runways 1
Magnetic Variation 4.087° E

METAR

OEWJ 122200Z 04005KT CAVOK 21/09 Q1017 NOSIG

Decode

TAF

Not found

Departure Runways

ID Width Length Bearing (true) Bearing (mag) Surface Threshold Offset Overrun Length
15 148 ft / 45 m 10,037 ft / 3,059 m 150.69° 146.60° Asphalt 0 ft / 0 m 197 ft / 60 m
33 148 ft / 45 m 10,037 ft / 3,059 m 330.70° 326.61° Asphalt 0 ft / 0 m 197 ft / 60 m

HEAX

Details ICAO HEAX (ALY)
Name ALEXANDRIA INTL
Region Egypt
Timezone Africa/Cairo (UTC+2.0)
Stats Elevation -6 ft / -2 m (AMSL)
Location 31.183715° 29.947602°
Runways 2
Magnetic Variation 4.420° E

METAR

HEAX 122200Z 33017KT 9999 SCT020 19/13 Q1021 NOSIG

Decode

TAF

TAF HEAX 121700Z 1218/1324 35010KT 9999 SCT020

Decode

Destination Runways

ID Width Length Bearing (true) Bearing (mag) Surface Threshold Offset Overrun Length
04 148 ft / 45 m 7,225 ft / 2,202 m 44.92° 40.50° Asphalt 0 ft / 0 m 230 ft / 70 m
18 98 ft / 30 m 5,927 ft / 1,807 m 179.99° 175.57° Asphalt 0 ft / 0 m 198 ft / 60 m
22 148 ft / 45 m 7,225 ft / 2,202 m 224.93° 220.51° Asphalt 0 ft / 0 m 268 ft / 82 m
36 98 ft / 30 m 5,927 ft / 1,807 m 359.99° 355.57° Asphalt 0 ft / 0 m 375 ft / 114 m